createdAt,value
2018-09-11T00:01:27.419Z,7.00
2018-09-11T00:04:02.649Z,15.30
2018-09-11T00:06:38.396Z,8.60
2018-09-11T00:09:14.264Z,12.35
2018-09-11T00:11:50.007Z,8.45
2018-09-11T00:14:25.340Z,6.72
2018-09-11T00:17:00.893Z,7.90
2018-09-11T00:19:36.689Z,7.45
2018-09-11T00:22:12.394Z,8.73
2018-09-11T00:24:47.576Z,16.93
2018-09-11T00:27:23.109Z,14.50
2018-09-11T00:29:58.508Z,13.80
2018-09-11T00:32:33.969Z,13.13
2018-09-11T00:35:09.325Z,8.78
2018-09-11T00:37:44.770Z,7.10
2018-09-11T00:40:20.002Z,7.10
2018-09-11T00:42:55.662Z,7.22
2018-09-11T00:45:31.058Z,6.62
2018-09-11T00:48:06.641Z,6.40
2018-09-11T00:50:42.008Z,8.60
2018-09-11T00:53:18.068Z,8.30
2018-09-11T00:55:53.444Z,10.65
2018-09-11T00:58:29.043Z,12.18
2018-09-11T01:01:04.526Z,6.35
2018-09-11T01:03:39.992Z,7.12
2018-09-11T01:06:15.657Z,6.90
2018-09-11T01:08:51.128Z,7.50
2018-09-11T01:11:26.489Z,8.65
2018-09-11T01:14:02.110Z,8.03
2018-09-11T01:16:37.564Z,7.35
2018-09-11T01:19:13.204Z,7.97
2018-09-11T01:21:48.737Z,7.95
2018-09-11T01:24:24.310Z,7.12
2018-09-11T01:26:59.715Z,7.35
2018-09-11T01:29:35.308Z,7.12
2018-09-11T01:32:10.752Z,6.10
2018-09-11T01:34:46.282Z,9.25
2018-09-11T01:37:21.724Z,7.12
2018-09-11T01:39:57.176Z,6.62
2018-09-11T01:42:32.376Z,6.00
2018-09-11T01:45:08.376Z,6.42
2018-09-11T01:47:43.745Z,6.72
2018-09-11T01:50:19.159Z,6.37
2018-09-11T01:52:54.519Z,6.00
2018-09-11T01:55:30.309Z,5.80
2018-09-11T01:58:05.810Z,7.08
2018-09-11T02:00:41.632Z,6.22
2018-09-11T02:03:17.108Z,7.17
2018-09-11T02:05:52.706Z,6.70
2018-09-11T02:08:28.490Z,6.40
2018-09-11T02:11:03.924Z,6.65
2018-09-11T02:13:39.422Z,5.87
2018-09-11T02:16:14.858Z,5.95
2018-09-11T02:18:50.360Z,6.15
2018-09-11T02:21:26.041Z,5.87
2018-09-11T02:24:01.501Z,6.53
2018-09-11T02:26:36.944Z,6.15
2018-09-11T02:29:12.449Z,6.00
2018-09-11T02:31:47.996Z,7.25
2018-09-11T02:34:23.238Z,6.50
2018-09-11T02:36:58.685Z,6.95
2018-09-11T02:39:34.129Z,6.47
2018-09-11T02:42:09.715Z,6.72
2018-09-11T02:44:45.283Z,6.35
2018-09-11T02:47:20.897Z,6.33
2018-09-11T02:49:56.229Z,6.70
2018-09-11T02:52:31.689Z,6.15
2018-09-11T02:55:07.942Z,8.40
2018-09-11T02:57:43.373Z,7.15
2018-09-11T03:00:18.829Z,7.30
2018-09-11T03:02:54.284Z,6.67
2018-09-11T03:05:29.913Z,6.65
2018-09-11T03:08:05.385Z,6.95
2018-09-11T03:10:40.882Z,7.35
2018-09-11T03:13:16.477Z,7.15
2018-09-11T03:15:51.692Z,6.95
2018-09-11T03:18:27.274Z,7.33
2018-09-11T03:21:02.768Z,7.70
2018-09-11T03:23:38.261Z,7.12
2018-09-11T03:26:13.749Z,7.12
2018-09-11T03:28:49.460Z,8.10
2018-09-11T03:31:24.834Z,6.90
2018-09-11T03:34:00.434Z,7.55
2018-09-11T03:36:35.875Z,7.75
2018-09-11T03:39:12.553Z,7.85
2018-09-11T03:41:48.037Z,7.72
2018-09-11T03:44:23.687Z,7.35
2018-09-11T03:46:59.096Z,7.75
2018-09-11T03:49:35.272Z,6.85
2018-09-11T03:52:10.628Z,8.23
2018-09-11T03:54:46.162Z,8.15
2018-09-11T03:57:21.738Z,7.12
2018-09-11T03:59:57.286Z,7.45
2018-09-11T04:02:39.453Z,6.83
2018-09-11T04:05:15.150Z,7.50
2018-09-11T04:07:50.546Z,7.83
2018-09-11T04:10:26.013Z,7.40
2018-09-11T04:13:01.365Z,6.83
2018-09-11T04:15:36.940Z,7.20
2018-09-11T04:18:12.160Z,7.80
2018-09-11T04:20:47.596Z,8.25
2018-09-11T04:23:23.152Z,6.95
2018-09-11T04:25:58.926Z,7.40
2018-09-11T04:28:34.346Z,8.33
2018-09-11T04:31:09.782Z,7.50
2018-09-11T04:33:45.900Z,8.28
2018-09-11T04:36:21.412Z,7.90
2018-09-11T04:38:56.661Z,8.70
2018-09-11T04:41:31.961Z,8.90
2018-09-11T04:44:07.201Z,7.95
2018-09-11T04:46:42.929Z,8.68
2018-09-11T04:49:18.884Z,8.98
2018-09-11T04:51:54.367Z,9.13
2018-09-11T04:54:29.848Z,8.95
2018-09-11T04:57:05.759Z,7.97
2018-09-11T04:59:41.534Z,7.90
2018-09-11T05:02:17.131Z,8.10
2018-09-11T05:04:53.245Z,8.58
2018-09-11T05:07:29.381Z,8.70
2018-09-11T05:10:04.993Z,6.80
2018-09-11T05:12:40.575Z,8.23
2018-09-11T05:15:16.017Z,6.97
2018-09-11T05:17:51.669Z,6.92
2018-09-11T05:20:26.904Z,7.67
2018-09-11T05:23:02.349Z,6.55
2018-09-11T05:25:37.718Z,6.08
2018-09-11T05:28:13.186Z,5.62
2018-09-11T05:30:48.542Z,5.97
2018-09-11T05:33:24.144Z,6.62
2018-09-11T05:36:06.152Z,6.08
2018-09-11T05:38:41.765Z,6.45
2018-09-11T05:41:17.633Z,6.87
2018-09-11T05:43:53.085Z,6.20
2018-09-11T05:46:28.548Z,6.08
2018-09-11T05:49:04.198Z,6.55
2018-09-11T05:51:39.529Z,5.65
2018-09-11T05:54:15.434Z,5.78
2018-09-11T05:56:50.942Z,6.10
2018-09-11T05:59:26.571Z,4.95
2018-09-11T06:02:02.038Z,5.10
2018-09-11T06:04:37.772Z,5.20
2018-09-11T06:07:13.114Z,4.95
2018-09-11T06:09:48.745Z,5.47
2018-09-11T06:12:24.077Z,4.60
2018-09-11T06:14:59.757Z,5.15
2018-09-11T06:17:35.232Z,4.67
2018-09-11T06:20:11.246Z,4.87
2018-09-11T06:22:46.716Z,4.70
2018-09-11T06:25:22.466Z,4.70
2018-09-11T06:27:58.012Z,4.67
2018-09-11T06:30:33.457Z,4.53
2018-09-11T06:33:09.323Z,5.67
2018-09-11T06:35:44.861Z,4.90
2018-09-11T06:38:20.400Z,4.95
2018-09-11T06:40:56.012Z,5.37
2018-09-11T06:43:31.344Z,4.83
2018-09-11T06:46:07.250Z,5.20
2018-09-11T06:48:42.661Z,5.22
2018-09-11T06:51:18.144Z,5.30
2018-09-11T06:53:53.349Z,6.05
2018-09-11T06:56:28.824Z,7.08
2018-09-11T06:59:04.268Z,6.00
2018-09-11T07:01:39.926Z,6.15
2018-09-11T07:04:15.124Z,6.80
2018-09-11T07:06:51.019Z,6.40
2018-09-11T07:09:26.476Z,6.97
2018-09-11T07:12:02.115Z,6.65
2018-09-11T07:14:38.615Z,7.20
2018-09-11T07:17:14.027Z,6.58
2018-09-11T07:19:49.596Z,7.42
2018-09-11T07:22:25.072Z,6.40
2018-09-11T07:25:00.652Z,6.62
2018-09-11T07:27:36.324Z,6.70
2018-09-11T07:30:11.816Z,7.08
2018-09-11T07:32:47.416Z,8.03
2018-09-11T07:35:22.874Z,6.73
2018-09-11T07:37:58.385Z,6.77
2018-09-11T07:40:33.721Z,7.70
2018-09-11T07:43:09.300Z,7.87
2018-09-11T07:45:44.866Z,8.90
2018-09-11T07:48:20.393Z,7.93
2018-09-11T07:50:55.657Z,7.53
2018-09-11T07:53:31.481Z,9.10
2018-09-11T07:56:06.856Z,8.70
2018-09-11T07:58:42.377Z,12.80
2018-09-11T08:01:17.751Z,9.07
2018-09-11T08:03:53.341Z,8.80
2018-09-11T08:06:28.803Z,9.17
2018-09-11T08:09:04.908Z,15.50
2018-09-11T08:11:40.362Z,8.03
2018-09-11T08:14:16.076Z,8.60
2018-09-11T08:16:51.532Z,10.53
2018-09-11T08:19:26.989Z,11.00
2018-09-11T08:22:02.141Z,8.23
2018-09-11T08:24:37.644Z,8.97
2018-09-11T08:27:12.827Z,7.73
2018-09-11T08:29:48.331Z,9.30
2018-09-11T08:32:23.528Z,9.33
2018-09-11T08:34:59.063Z,8.73
2018-09-11T08:37:34.492Z,8.53
2018-09-11T08:40:10.288Z,8.27
2018-09-11T08:42:45.757Z,9.03
2018-09-11T08:45:21.311Z,8.40
2018-09-11T08:47:56.729Z,8.10
2018-09-11T08:50:32.191Z,8.53
2018-09-11T08:53:07.470Z,8.10
2018-09-11T08:55:42.888Z,7.17
2018-09-11T08:58:18.464Z,7.50
2018-09-11T09:00:54.125Z,8.00
2018-09-11T09:03:29.429Z,7.00
2018-09-11T09:06:05.299Z,7.03
2018-09-11T09:08:40.664Z,6.00
2018-09-11T09:11:16.857Z,7.57
2018-09-11T09:13:52.249Z,7.13
2018-09-11T09:16:27.868Z,6.33
2018-09-11T09:19:03.184Z,6.20
2018-09-11T09:21:38.787Z,6.77
2018-09-11T09:24:14.208Z,6.07
2018-09-11T09:26:49.767Z,5.77
2018-09-11T09:29:25.084Z,5.27
2018-09-11T09:32:00.754Z,5.13
2018-09-11T09:34:36.057Z,6.93
2018-09-11T09:37:12.165Z,6.10
2018-09-11T09:39:47.437Z,5.20
2018-09-11T09:42:23.236Z,4.53
2018-09-11T09:44:59.405Z,5.13
2018-09-11T09:47:34.974Z,5.43
2018-09-11T09:50:10.473Z,4.83
2018-09-11T09:52:45.854Z,4.27
2018-09-11T09:55:21.032Z,4.40
2018-09-11T09:57:56.438Z,4.50
2018-09-11T10:00:36.894Z,4.80
2018-09-11T10:03:12.477Z,4.23
2018-09-11T10:05:48.101Z,4.40
2018-09-11T10:08:23.649Z,4.43
2018-09-11T10:10:59.020Z,4.73
2018-09-11T10:13:34.529Z,4.23
2018-09-11T10:16:09.946Z,4.70
2018-09-11T10:18:45.421Z,5.07
2018-09-11T10:21:20.649Z,4.40
2018-09-11T10:23:56.113Z,4.20
2018-09-11T10:26:31.493Z,4.80
2018-09-11T10:29:07.116Z,5.60
2018-09-11T10:31:43.124Z,5.10
2018-09-11T10:34:18.741Z,5.10
2018-09-11T10:36:54.437Z,4.60
2018-09-11T10:39:29.940Z,4.33
2018-09-11T10:42:05.165Z,4.33
2018-09-11T10:44:40.702Z,5.00
2018-09-11T10:47:16.214Z,4.87
2018-09-11T10:49:51.876Z,3.93
2018-09-11T10:52:27.259Z,4.27
2018-09-11T10:55:03.431Z,4.47
2018-09-11T10:57:38.751Z,4.83
2018-09-11T11:00:14.630Z,4.90
2018-09-11T11:02:49.974Z,4.73
2018-09-11T11:05:25.793Z,4.53
2018-09-11T11:08:01.217Z,4.20
2018-09-11T11:10:36.649Z,4.10
2018-09-11T11:13:12.008Z,4.47
2018-09-11T11:15:47.477Z,4.30
2018-09-11T11:18:22.789Z,3.87
2018-09-11T11:20:58.666Z,4.40
2018-09-11T11:23:34.179Z,4.97
2018-09-11T11:26:09.587Z,4.13
2018-09-11T11:28:44.885Z,4.23
2018-09-11T11:31:20.461Z,4.50
2018-09-11T11:33:55.893Z,5.20
2018-09-11T11:36:31.420Z,4.60
2018-09-11T11:39:09.933Z,4.10
2018-09-11T11:41:45.442Z,4.23
2018-09-11T11:44:20.881Z,4.93
2018-09-11T11:46:56.633Z,5.00
2018-09-11T11:49:31.871Z,4.57
2018-09-11T11:52:07.324Z,4.40
2018-09-11T11:54:42.620Z,4.10
2018-09-11T11:57:18.281Z,4.47
2018-09-11T11:59:53.777Z,4.90
2018-09-11T12:02:29.273Z,4.63
2018-09-11T12:05:04.746Z,4.60
2018-09-11T12:07:40.633Z,4.50
2018-09-11T12:10:16.025Z,4.20
2018-09-11T12:12:51.360Z,4.00
2018-09-11T12:15:26.841Z,4.80
2018-09-11T12:18:02.462Z,4.40
2018-09-11T12:20:37.960Z,4.80
2018-09-11T12:23:13.549Z,4.37
2018-09-11T12:25:49.037Z,5.30
2018-09-11T12:28:24.537Z,4.93
2018-09-11T12:30:59.815Z,4.93
2018-09-11T12:33:35.333Z,4.27
2018-09-11T12:36:10.805Z,4.60
2018-09-11T12:38:46.645Z,4.80
2018-09-11T12:41:21.902Z,4.23
2018-09-11T12:43:57.316Z,4.47
2018-09-11T12:46:32.897Z,5.43
2018-09-11T12:49:08.005Z,4.93
2018-09-11T12:51:43.301Z,4.53
2018-09-11T12:54:24.993Z,5.00
2018-09-11T12:57:00.458Z,5.30
2018-09-11T12:59:35.928Z,5.50
2018-09-11T13:02:11.341Z,5.63
2018-09-11T13:04:46.824Z,5.00
2018-09-11T13:07:22.290Z,6.50
2018-09-11T13:09:58.018Z,4.60
2018-09-11T13:12:33.378Z,5.23
2018-09-11T13:15:09.075Z,5.70
2018-09-11T13:17:44.455Z,5.23
2018-09-11T13:20:20.108Z,5.60
2018-09-11T13:22:56.462Z,5.60
2018-09-11T13:25:32.004Z,5.57
2018-09-11T13:28:07.345Z,6.53
2018-09-11T13:30:42.905Z,5.93
2018-09-11T13:33:18.213Z,6.00
2018-09-11T13:35:53.799Z,6.60
2018-09-11T13:38:29.316Z,5.70
2018-09-11T13:41:04.891Z,5.57
2018-09-11T13:43:40.284Z,5.80
2018-09-11T13:46:15.802Z,5.83
2018-09-11T13:48:51.097Z,6.20
2018-09-11T13:51:26.773Z,5.40
2018-09-11T13:54:01.973Z,5.67
2018-09-11T13:56:37.416Z,6.13
2018-09-11T13:59:12.957Z,5.60
2018-09-11T14:01:48.557Z,6.17
2018-09-11T14:04:23.775Z,6.83
2018-09-11T14:06:59.656Z,7.00
2018-09-11T14:09:34.989Z,7.23
2018-09-11T14:12:10.552Z,7.97
2018-09-11T14:14:45.708Z,8.77
2018-09-11T14:17:21.230Z,8.33
2018-09-11T14:19:56.417Z,8.50
2018-09-11T14:22:32.016Z,7.83
2018-09-11T14:25:07.269Z,10.20
2018-09-11T14:27:42.909Z,10.00
2018-09-11T14:30:18.356Z,9.13
2018-09-11T14:32:53.796Z,9.43
2018-09-11T14:35:29.091Z,9.27
2018-09-11T14:38:04.689Z,9.57
2018-09-11T14:40:39.862Z,9.83
2018-09-11T14:43:15.335Z,9.67
2018-09-11T14:45:50.642Z,10.43
2018-09-11T14:48:26.278Z,10.30
2018-09-11T14:51:01.738Z,11.40
2018-09-11T14:53:37.353Z,13.03
2018-09-11T14:56:12.730Z,11.83
2018-09-11T14:58:48.878Z,14.93
2018-09-11T15:01:24.282Z,13.90
2018-09-11T15:03:59.757Z,13.90
2018-09-11T15:06:35.509Z,14.10
2018-09-11T15:09:11.624Z,15.40
2018-09-11T15:11:47.044Z,16.50
2018-09-11T15:14:22.461Z,16.93
2018-09-11T15:16:57.917Z,18.57
2018-09-11T15:19:33.534Z,18.27
2018-09-11T15:22:08.912Z,19.13
2018-09-11T15:24:44.347Z,20.10
2018-09-11T15:27:19.914Z,18.93
2018-09-11T15:29:55.589Z,22.10
2018-09-11T15:32:30.986Z,21.47
2018-09-11T15:35:06.529Z,27.17
2018-09-11T15:37:41.996Z,26.20
2018-09-11T15:40:17.805Z,30.70
2018-09-11T15:42:53.164Z,31.67
2018-09-11T15:45:28.721Z,33.90
2018-09-11T15:48:04.264Z,34.93
2018-09-11T15:50:39.926Z,30.20
2018-09-11T15:53:15.437Z,28.00
2018-09-11T15:55:51.070Z,25.67
2018-09-11T15:58:26.482Z,25.07
2018-09-11T16:01:02.109Z,23.10
2018-09-11T16:03:37.304Z,24.07
2018-09-11T16:06:13.094Z,23.47
2018-09-11T16:08:48.490Z,22.57
2018-09-11T16:11:24.305Z,21.10
2018-09-11T16:13:59.842Z,19.50
2018-09-11T16:16:35.596Z,20.57
2018-09-11T16:19:11.081Z,19.00
2018-09-11T16:21:46.690Z,16.90
2018-09-11T16:24:21.929Z,15.43
2018-09-11T16:26:57.494Z,16.83
2018-09-11T16:29:33.032Z,18.40
2018-09-11T16:32:08.441Z,16.90
2018-09-11T16:34:43.634Z,11.67
2018-09-11T16:37:19.389Z,11.30
2018-09-11T16:39:54.736Z,9.53
2018-09-11T16:42:30.252Z,11.00
2018-09-11T16:45:05.744Z,10.80
2018-09-11T16:47:41.348Z,12.30
2018-09-11T16:50:16.725Z,11.30
2018-09-11T16:52:52.260Z,12.77
2018-09-11T16:55:27.748Z,14.30
2018-09-11T16:58:03.349Z,11.37
2018-09-11T17:00:38.829Z,12.00
2018-09-11T17:03:14.421Z,11.60
2018-09-11T17:05:50.288Z,12.30
2018-09-11T17:08:27.210Z,12.40
2018-09-11T17:11:02.671Z,12.50
2018-09-11T17:13:38.257Z,13.50
2018-09-11T17:16:13.483Z,16.43
2018-09-11T17:18:50.069Z,11.83
2018-09-11T17:21:25.497Z,12.23
2018-09-11T17:24:01.185Z,12.43
2018-09-11T17:26:36.790Z,14.40
2018-09-11T17:29:12.470Z,13.77
2018-09-11T17:31:48.041Z,15.87
2018-09-11T17:34:23.666Z,12.57
2018-09-11T17:36:59.021Z,12.10
2018-09-11T17:39:34.468Z,12.27
2018-09-11T17:42:09.828Z,13.90
2018-09-11T17:44:45.383Z,12.23
2018-09-11T17:47:20.869Z,12.03
2018-09-11T17:49:57.785Z,12.70
2018-09-11T17:52:33.854Z,12.50
2018-09-11T17:55:09.635Z,12.23
2018-09-11T17:57:45.130Z,11.77
2018-09-11T18:00:20.572Z,11.43
2018-09-11T18:02:55.960Z,10.73
2018-09-11T18:05:31.677Z,10.60
2018-09-11T18:08:07.630Z,11.73
2018-09-11T18:10:43.174Z,12.40
2018-09-11T18:13:18.544Z,12.10
2018-09-11T18:15:54.179Z,11.40
2018-09-11T18:18:29.521Z,11.53
2018-09-11T18:21:05.266Z,14.70
2018-09-11T18:23:40.786Z,12.73
2018-09-11T18:26:16.868Z,13.53
2018-09-11T18:28:52.283Z,16.50
2018-09-11T18:31:27.962Z,16.70
2018-09-11T18:34:03.360Z,15.00
2018-09-11T18:36:39.217Z,15.20
2018-09-11T18:39:14.631Z,15.10
2018-09-11T18:41:50.461Z,14.80
2018-09-11T18:44:25.832Z,16.00
2018-09-11T18:47:01.248Z,15.90
2018-09-11T18:49:36.485Z,15.77
2018-09-11T18:52:12.567Z,14.17
2018-09-11T18:54:48.030Z,14.77
2018-09-11T18:57:23.542Z,14.17
2018-09-11T19:00:00.076Z,14.13
2018-09-11T19:02:37.607Z,15.97
2018-09-11T19:05:15.020Z,15.77
2018-09-11T19:07:51.501Z,14.70
2018-09-11T19:10:28.947Z,15.80
2018-09-11T19:13:06.348Z,15.00
2018-09-11T19:15:43.273Z,14.93
2018-09-11T19:18:19.590Z,14.47
2018-09-11T19:20:55.969Z,15.00
2018-09-11T19:23:31.618Z,14.60
2018-09-11T19:26:07.185Z,14.40
2018-09-11T19:28:42.716Z,14.37
2018-09-11T19:31:18.447Z,13.30
2018-09-11T19:33:53.886Z,16.37
2018-09-11T19:36:29.561Z,15.80
2018-09-11T19:39:06.735Z,14.00
2018-09-11T19:41:42.001Z,16.50
2018-09-11T19:44:17.426Z,14.73
2018-09-11T19:46:52.721Z,17.60
2018-09-11T19:49:28.312Z,17.73
2018-09-11T19:52:03.957Z,11.47
2018-09-11T19:54:39.534Z,16.90
2018-09-11T19:57:14.859Z,11.27
2018-09-11T19:59:50.401Z,10.50
2018-09-11T20:02:25.794Z,10.77
2018-09-11T20:05:01.375Z,12.30
2018-09-11T20:07:36.844Z,12.03
2018-09-11T20:10:12.491Z,12.77
2018-09-11T20:12:47.697Z,12.00
2018-09-11T20:15:23.274Z,11.93
2018-09-11T20:17:58.784Z,12.03
2018-09-11T20:20:34.577Z,12.03
2018-09-11T20:23:09.808Z,11.83
2018-09-11T20:25:45.280Z,15.53
2018-09-11T20:28:20.782Z,11.70
2018-09-11T20:30:56.356Z,9.90
2018-09-11T20:33:31.855Z,8.90
2018-09-11T20:36:07.586Z,9.70
2018-09-11T20:38:43.018Z,10.50
2018-09-11T20:41:19.465Z,11.40
2018-09-11T20:43:54.891Z,10.37
2018-09-11T20:46:30.483Z,11.97
2018-09-11T20:49:05.857Z,8.77
2018-09-11T20:51:41.488Z,9.00
2018-09-11T20:54:16.998Z,10.17
2018-09-11T20:56:52.865Z,10.30
2018-09-11T20:59:28.385Z,10.87
2018-09-11T21:02:03.770Z,10.47
2018-09-11T21:04:39.686Z,10.27
2018-09-11T21:07:16.150Z,12.63
2018-09-11T21:09:51.642Z,12.27
2018-09-11T21:12:27.692Z,13.10
2018-09-11T21:15:03.096Z,10.00
2018-09-11T21:17:38.494Z,9.87
2018-09-11T21:20:14.041Z,16.07
2018-09-11T21:22:49.849Z,13.30
2018-09-11T21:25:25.208Z,14.67
2018-09-11T21:28:00.684Z,9.13
2018-09-11T21:30:36.168Z,12.83
2018-09-11T21:33:11.838Z,10.57
2018-09-11T21:35:47.656Z,8.30
2018-09-11T21:38:23.280Z,16.67
2018-09-11T21:40:58.562Z,12.90
2018-09-11T21:43:33.972Z,9.80
2018-09-11T21:46:09.344Z,7.53
2018-09-11T21:48:44.722Z,6.47
2018-09-11T21:51:20.504Z,9.10
2018-09-11T21:53:56.472Z,8.80
2018-09-11T21:56:31.812Z,8.93
2018-09-11T21:59:07.401Z,6.97
2018-09-11T22:01:51.119Z,9.67
2018-09-11T22:04:26.529Z,9.43
2018-09-11T22:07:02.341Z,11.93
2018-09-11T22:09:37.752Z,7.30
2018-09-11T22:12:13.020Z,7.07
2018-09-11T22:14:48.424Z,6.97
2018-09-11T22:17:23.875Z,9.93
2018-09-11T22:19:59.728Z,7.80
2018-09-11T22:22:35.132Z,11.97
2018-09-11T22:25:10.754Z,8.00
2018-09-11T22:27:46.101Z,8.17
2018-09-11T22:30:21.671Z,7.47
2018-09-11T22:32:57.157Z,6.77
2018-09-11T22:35:32.649Z,7.90
2018-09-11T22:38:08.098Z,6.77
2018-09-11T22:40:43.725Z,6.90
2018-09-11T22:43:19.042Z,6.90
2018-09-11T22:45:54.750Z,6.17
2018-09-11T22:48:30.066Z,11.37
2018-09-11T22:51:06.173Z,12.23
2018-09-11T22:53:41.616Z,9.90
2018-09-11T22:56:16.965Z,9.90
2018-09-11T22:58:52.290Z,6.50
2018-09-11T23:01:27.893Z,8.47
2018-09-11T23:04:03.246Z,8.50
2018-09-11T23:06:38.896Z,6.60
2018-09-11T23:09:14.384Z,7.90
2018-09-11T23:11:49.802Z,7.17
2018-09-11T23:14:25.111Z,7.80
2018-09-11T23:17:00.665Z,8.27
2018-09-11T23:19:35.954Z,9.00
2018-09-11T23:22:11.337Z,10.77
2018-09-11T23:24:46.828Z,10.20
2018-09-11T23:27:22.257Z,9.10
2018-09-11T23:29:57.678Z,8.73
2018-09-11T23:32:33.141Z,9.20
2018-09-11T23:35:08.617Z,6.50
2018-09-11T23:37:44.085Z,8.40
2018-09-11T23:40:19.597Z,8.87
2018-09-11T23:42:55.020Z,6.47
2018-09-11T23:45:30.530Z,8.47
2018-09-11T23:48:06.105Z,4.23
2018-09-11T23:50:41.553Z,5.27
2018-09-11T23:53:16.907Z,3.37
2018-09-11T23:55:52.222Z,2.90
2018-09-11T23:58:27.663Z,2.80
